Time;durP1;ratioP1;P1;durP2;ratioP2;P2;SDS_P1;SDS_P2;PMS_P1;PMS_P2;Temp;Humidity;BMP_temperature;BMP_pressure;BME280_temperature;BME280_humidity;BME280_pressure;Samples;Min_cycle;Max_cycle;Signal;HPM_P1;HPM_P2
2020/12/24 00:01:02;;;;;;;;;;;6.50;99.90;;;;;;5097728;28;19940;-67
2020/12/24 00:03:28;;;;;;;;;;;6.40;99.90;;;;;;5098340;28;19999;-68
2020/12/24 00:05:54;;;;;;;;;;;6.50;99.90;;;;;;5097923;28;19916;-67
2020/12/24 00:08:21;;;;;;;;;;;6.50;99.90;;;;;;5097948;28;19918;-67
2020/12/24 00:10:46;;;;;;;;;;;6.50;99.90;;;;;;5097835;28;19912;-67
2020/12/24 00:13:12;;;;;;;;;;;6.50;99.90;;;;;;5098281;28;20291;-67
2020/12/24 00:15:37;;;;;;;;;;;6.60;99.90;;;;;;5098016;28;20306;-67
2020/12/24 00:18:03;;;;;;;;;;;6.50;99.90;;;;;;5096954;28;19994;-67
2020/12/24 00:20:28;;;;;;;;;;;6.50;99.90;;;;;;5097483;28;19951;-67
2020/12/24 00:22:54;;;;;;;;;;;6.50;99.90;;;;;;5097757;28;20014;-67
2020/12/24 00:25:22;;;;;;;;;;;6.60;99.90;;;;;;5079841;28;19939;-67
2020/12/24 00:27:48;;;;;;;;;;;6.50;99.90;;;;;;5097509;28;20010;-67
2020/12/24 00:30:13;;;;;;;;;;;6.50;99.90;;;;;;5097846;28;19947;-67
2020/12/24 00:32:39;;;;;;;;;;;6.60;99.90;;;;;;5097949;28;19997;-67
2020/12/24 00:35:05;;;;;;;;;;;6.60;99.90;;;;;;5097533;28;20283;-67
2020/12/24 00:37:30;;;;;;;;;;;6.60;99.90;;;;;;5097246;28;19915;-67
2020/12/24 00:39:56;;;;;;;;;;;6.60;99.90;;;;;;5097027;28;19927;-66
2020/12/24 00:42:21;;;;;;;;;;;6.70;99.90;;;;;;5097491;28;19916;-66
2020/12/24 00:44:47;;;;;;;;;;;6.70;99.90;;;;;;5098813;28;19908;-65
2020/12/24 00:47:12;;;;;;;;;;;6.70;99.90;;;;;;5099580;28;19918;-65
2020/12/24 00:49:38;;;;;;;;;;;6.70;99.90;;;;;;5097081;28;20003;-65
2020/12/24 00:52:03;;;;;;;;;;;6.70;99.90;;;;;;5097433;28;19918;-65
2020/12/24 00:54:29;;;;;;;;;;;6.80;99.90;;;;;;5097205;28;20204;-65
2020/12/24 00:56:54;;;;;;;;;;;6.70;99.90;;;;;;5097075;28;20298;-64
2020/12/24 00:59:20;;;;;;;;;;;6.80;99.90;;;;;;5097143;28;19912;-65
2020/12/24 01:01:45;;;;;;;;;;;6.80;99.90;;;;;;5096016;28;19916;-65
2020/12/24 01:04:11;;;;;;;;;;;6.80;99.90;;;;;;5096808;28;20323;-65
2020/12/24 01:06:36;;;;;;;;;;;6.80;99.90;;;;;;5096883;28;20006;-65
2020/12/24 01:09:03;;;;;;;;;;;6.90;99.90;;;;;;5095194;28;19954;-65
2020/12/24 01:11:29;;;;;;;;;;;6.80;99.90;;;;;;5096999;28;19908;-63
2020/12/24 01:13:54;;;;;;;;;;;6.80;99.90;;;;;;5095194;28;20331;-63
2020/12/24 01:16:20;;;;;;;;;;;6.70;99.90;;;;;;5097383;28;20306;-64
2020/12/24 01:18:46;;;;;;;;;;;6.70;99.90;;;;;;5095174;28;19981;-64
2020/12/24 01:21:12;;;;;;;;;;;6.60;99.90;;;;;;5096807;28;19908;-64
2020/12/24 01:23:37;;;;;;;;;;;6.60;99.90;;;;;;5095792;28;19997;-64
2020/12/24 01:26:05;;;;;;;;;;;6.70;99.90;;;;;;5096162;28;19913;-63
2020/12/24 01:28:31;;;;;;;;;;;6.70;99.90;;;;;;5096932;28;20032;-63
2020/12/24 01:30:56;;;;;;;;;;;6.70;99.90;;;;;;5096293;28;20306;-63
2020/12/24 01:33:24;;;;;;;;;;;6.80;99.90;;;;;;5097134;28;19955;-63
2020/12/24 01:35:49;;;;;;;;;;;6.70;99.90;;;;;;5096539;28;19916;-63
2020/12/24 01:38:15;;;;;;;;;;;6.70;99.90;;;;;;5097039;28;19912;-63
2020/12/24 01:40:40;;;;;;;;;;;6.70;99.90;;;;;;5096682;28;20256;-64
2020/12/24 01:43:06;;;;;;;;;;;6.70;99.90;;;;;;5096376;28;19920;-64
2020/12/24 01:45:33;;;;;;;;;;;6.70;99.90;;;;;;5096694;28;19969;-63
2020/12/24 01:47:58;;;;;;;;;;;6.70;99.90;;;;;;5096508;28;20218;-63
2020/12/24 01:50:24;;;;;;;;;;;6.70;99.90;;;;;;5096609;28;19916;-64
2020/12/24 01:52:50;;;;;;;;;;;6.70;99.90;;;;;;5095431;28;19974;-63
2020/12/24 01:55:17;;;;;;;;;;;6.70;99.90;;;;;;5095962;28;20308;-63
2020/12/24 01:57:42;;;;;;;;;;;6.80;99.90;;;;;;5096841;28;19920;-63
2020/12/24 02:00:08;;;;;;;;;;;6.80;99.90;;;;;;5096276;28;19958;-63
2020/12/24 02:02:34;;;;;;;;;;;6.80;99.90;;;;;;5096685;28;19916;-63
2020/12/24 02:04:59;;;;;;;;;;;6.80;99.90;;;;;;5096182;28;20036;-63
2020/12/24 02:07:25;;;;;;;;;;;6.80;99.90;;;;;;5096627;28;19947;-63
2020/12/24 02:09:51;;;;;;;;;;;6.80;99.90;;;;;;5096032;28;19955;-64
2020/12/24 02:12:17;;;;;;;;;;;6.90;99.90;;;;;;5096476;28;20227;-64
2020/12/24 02:14:43;;;;;;;;;;;6.90;99.90;;;;;;5096376;28;19908;-63
2020/12/24 02:17:09;;;;;;;;;;;6.90;99.90;;;;;;5096404;28;19969;-63
2020/12/24 02:19:34;;;;;;;;;;;6.90;99.90;;;;;;5096058;28;20071;-63
2020/12/24 02:22:00;;;;;;;;;;;7.00;99.90;;;;;;5096254;28;20015;-63
2020/12/24 02:24:26;;;;;;;;;;;7.00;99.90;;;;;;5096066;28;19957;-63
2020/12/24 02:26:52;;;;;;;;;;;7.00;99.90;;;;;;5096569;28;20219;-63
2020/12/24 02:29:17;;;;;;;;;;;7.00;99.90;;;;;;5095903;28;19916;-64
2020/12/24 02:31:43;;;;;;;;;;;7.00;99.90;;;;;;5096578;28;19916;-64
2020/12/24 02:34:08;;;;;;;;;;;7.00;99.90;;;;;;5096001;28;20265;-63
2020/12/24 02:36:34;;;;;;;;;;;6.90;99.90;;;;;;5077778;28;19920;-63
2020/12/24 02:38:59;;;;;;;;;;;6.90;99.90;;;;;;5094851;28;19913;-63
2020/12/24 02:41:25;;;;;;;;;;;6.90;99.90;;;;;;5096603;28;20233;-63
2020/12/24 02:43:50;;;;;;;;;;;6.90;99.90;;;;;;5098349;28;19919;-63
2020/12/24 02:46:16;;;;;;;;;;;6.90;99.90;;;;;;5099143;28;20239;-63
2020/12/24 02:48:42;;;;;;;;;;;6.90;99.90;;;;;;5099850;28;20315;-63
2020/12/24 02:51:08;;;;;;;;;;;6.90;99.90;;;;;;5099358;28;19919;-63
2020/12/24 02:53:34;;;;;;;;;;;6.90;99.90;;;;;;5098604;28;19932;-63
2020/12/24 02:55:59;;;;;;;;;;;6.90;99.90;;;;;;5099364;28;20249;-66
2020/12/24 02:58:25;;;;;;;;;;;6.90;99.90;;;;;;5099557;28;20208;-65
2020/12/24 03:00:50;;;;;;;;;;;7.00;99.90;;;;;;5099492;28;20050;-65
2020/12/24 03:03:16;;;;;;;;;;;7.00;99.90;;;;;;5098835;28;19916;-65
2020/12/24 03:05:42;;;;;;;;;;;6.90;99.90;;;;;;5099610;28;19966;-65
2020/12/24 03:08:07;;;;;;;;;;;6.90;99.90;;;;;;5098821;28;19908;-65
2020/12/24 03:10:33;;;;;;;;;;;6.90;99.90;;;;;;5098912;28;19937;-65
2020/12/24 03:12:58;;;;;;;;;;;6.90;99.90;;;;;;5099337;28;20038;-65
2020/12/24 03:15:24;;;;;;;;;;;6.90;99.90;;;;;;5097750;28;19916;-65
2020/12/24 03:17:49;;;;;;;;;;;6.90;99.90;;;;;;5100831;28;19933;-65
2020/12/24 03:20:16;;;;;;;;;;;6.90;99.90;;;;;;5100559;28;19912;-64
2020/12/24 03:22:41;;;;;;;;;;;6.90;99.90;;;;;;5100902;28;19916;-64
2020/12/24 03:25:07;;;;;;;;;;;6.80;99.90;;;;;;5098770;28;20327;-64
2020/12/24 03:27:32;;;;;;;;;;;6.80;99.90;;;;;;5098936;28;20084;-64
2020/12/24 03:29:58;;;;;;;;;;;6.90;99.90;;;;;;5099080;28;19915;-64
2020/12/24 03:32:23;;;;;;;;;;;6.80;99.90;;;;;;5098341;28;19918;-64
2020/12/24 03:34:49;;;;;;;;;;;6.80;99.90;;;;;;5098921;28;19947;-65
2020/12/24 03:37:14;;;;;;;;;;;6.80;99.90;;;;;;5098634;28;20329;-64
2020/12/24 03:39:40;;;;;;;;;;;6.80;99.90;;;;;;5098248;28;19923;-64
2020/12/24 03:42:05;;;;;;;;;;;6.80;99.90;;;;;;5098374;28;19912;-64
2020/12/24 03:44:31;;;;;;;;;;;6.80;99.90;;;;;;5098670;28;19916;-64
2020/12/24 03:46:56;;;;;;;;;;;6.80;99.90;;;;;;5098969;28;19912;-64
2020/12/24 03:49:22;;;;;;;;;;;6.80;99.90;;;;;;5097130;28;19969;-64
2020/12/24 03:51:47;;;;;;;;;;;6.80;99.90;;;;;;5098628;28;19995;-64
2020/12/24 03:54:13;;;;;;;;;;;6.70;99.90;;;;;;5096322;28;19959;-64
2020/12/24 03:56:38;;;;;;;;;;;6.80;99.90;;;;;;5098523;28;20017;-64
2020/12/24 03:59:04;;;;;;;;;;;6.80;99.90;;;;;;5096870;28;19958;-63
2020/12/24 04:01:29;;;;;;;;;;;6.70;99.90;;;;;;5098564;28;19985;-64
2020/12/24 04:03:55;;;;;;;;;;;6.70;99.90;;;;;;5098228;28;20299;-63
2020/12/24 04:06:20;;;;;;;;;;;6.60;99.90;;;;;;5098342;28;19934;-64
2020/12/24 04:08:46;;;;;;;;;;;6.50;99.90;;;;;;5096980;28;20277;-63
2020/12/24 04:11:11;;;;;;;;;;;6.40;99.90;;;;;;5079429;28;19966;-63
2020/12/24 04:13:37;;;;;;;;;;;6.30;99.90;;;;;;5080152;28;19912;-63
2020/12/24 04:16:02;;;;;;;;;;;6.20;99.90;;;;;;5097675;28;19912;-63
2020/12/24 04:18:28;;;;;;;;;;;6.20;99.90;;;;;;5098007;28;20319;-63
2020/12/24 04:20:53;;;;;;;;;;;6.10;99.90;;;;;;5096642;28;19912;-63
2020/12/24 04:23:19;;;;;;;;;;;6.10;99.90;;;;;;5097426;28;20229;-63
2020/12/24 04:25:45;;;;;;;;;;;6.00;99.90;;;;;;5097688;28;19912;-63
2020/12/24 04:28:11;;;;;;;;;;;6.00;99.90;;;;;;5097479;28;19913;-63
2020/12/24 04:30:36;;;;;;;;;;;5.90;99.90;;;;;;5097274;28;19919;-63
2020/12/24 04:33:02;;;;;;;;;;;5.80;99.90;;;;;;5096732;28;20226;-63
2020/12/24 04:35:27;;;;;;;;;;;5.80;99.90;;;;;;5097232;28;19909;-63
2020/12/24 04:37:53;;;;;;;;;;;5.70;99.90;;;;;;5097616;28;19912;-63
2020/12/24 04:40:19;;;;;;;;;;;5.60;99.90;;;;;;5097519;28;20306;-63
2020/12/24 04:42:44;;;;;;;;;;;5.50;99.90;;;;;;5097834;28;19912;-63
2020/12/24 04:45:10;;;;;;;;;;;5.50;99.90;;;;;;5096888;28;20319;-63
2020/12/24 04:47:41;;;;;;;;;;;5.40;99.90;;;;;;5097584;28;19998;-63
2020/12/24 04:50:07;;;;;;;;;;;5.40;99.90;;;;;;5097111;28;19978;-63
2020/12/24 04:52:34;;;;;;;;;;;5.40;99.90;;;;;;5097235;28;20327;-63
2020/12/24 04:55:01;;;;;;;;;;;5.30;99.90;;;;;;5096987;28;19923;-63
2020/12/24 04:57:28;;;;;;;;;;;5.20;99.90;;;;;;5095942;28;19912;-63
2020/12/24 04:59:54;;;;;;;;;;;5.20;99.90;;;;;;5097076;28;19915;-63
2020/12/24 05:02:20;;;;;;;;;;;5.10;99.90;;;;;;5096801;28;19920;-63
2020/12/24 05:04:45;;;;;;;;;;;5.10;99.90;;;;;;5096714;28;20325;-63
2020/12/24 05:07:11;;;;;;;;;;;5.00;99.90;;;;;;5097267;28;19916;-63
2020/12/24 05:09:36;;;;;;;;;;;5.00;99.90;;;;;;5097342;28;19915;-63
2020/12/24 05:12:02;;;;;;;;;;;5.00;99.90;;;;;;5096307;28;19947;-63
2020/12/24 05:14:28;;;;;;;;;;;5.00;99.90;;;;;;5096785;28;20290;-63
2020/12/24 05:16:57;;;;;;;;;;;5.00;99.90;;;;;;5097483;28;20341;-63
2020/12/24 05:19:23;;;;;;;;;;;4.90;99.90;;;;;;5096174;28;19915;-63
2020/12/24 05:21:48;;;;;;;;;;;4.90;99.90;;;;;;5096940;28;19916;-63
2020/12/24 05:24:20;;;;;;;;;;;4.80;99.90;;;;;;5097074;28;19953;-63
2020/12/24 05:26:46;;;;;;;;;;;4.80;99.90;;;;;;5096967;28;20230;-63
2020/12/24 05:29:11;;;;;;;;;;;4.80;99.90;;;;;;5096891;28;19920;-63
2020/12/24 05:31:37;;;;;;;;;;;4.80;99.90;;;;;;5097061;28;19926;-63
2020/12/24 05:34:03;;;;;;;;;;;4.70;99.90;;;;;;5097804;28;20347;-63
2020/12/24 05:36:28;;;;;;;;;;;4.70;99.90;;;;;;5096713;28;19985;-63
2020/12/24 05:38:54;;;;;;;;;;;4.70;99.90;;;;;;5096805;28;19919;-63
2020/12/24 05:41:25;;;;;;;;;;;4.70;99.90;;;;;;5096523;28;19996;-63
2020/12/24 05:44:14;;;;;;;;;;;4.70;99.90;;;;;;5097092;28;19962;-63
2020/12/24 05:46:46;;;;;;;;;;;4.60;99.90;;;;;;5085274;28;19916;-63
2020/12/24 05:49:21;;;;;;;;;;;4.60;99.90;;;;;;5095997;28;19919;-63
2020/12/24 05:51:53;;;;;;;;;;;4.50;99.90;;;;;;5097361;28;20238;-63
2020/12/24 05:54:19;;;;;;;;;;;4.50;99.90;;;;;;5097726;28;19916;-63
2020/12/24 05:56:45;;;;;;;;;;;4.40;99.90;;;;;;5095520;28;20000;-63
2020/12/24 05:59:15;;;;;;;;;;;4.50;99.90;;;;;;5096904;28;19969;-63
2020/12/24 06:01:40;;;;;;;;;;;4.40;99.90;;;;;;5096481;28;19959;-63
2020/12/24 06:04:07;;;;;;;;;;;4.40;99.90;;;;;;5096725;28;19954;-63
2020/12/24 06:06:39;;;;;;;;;;;4.40;99.90;;;;;;5096439;28;20192;-63
2020/12/24 06:09:08;;;;;;;;;;;4.40;99.90;;;;;;5096303;28;20223;-63
2020/12/24 06:11:43;;;;;;;;;;;4.50;99.90;;;;;;5096315;28;19915;-62
2020/12/24 06:14:12;;;;;;;;;;;4.40;99.90;;;;;;5096038;28;19908;-62
2020/12/24 06:16:38;;;;;;;;;;;4.40;99.90;;;;;;5098941;28;19908;-62
2020/12/24 06:19:04;;;;;;;;;;;4.30;99.90;;;;;;5097974;28;19920;-62
2020/12/24 06:21:31;;;;;;;;;;;4.30;99.90;;;;;;5100321;28;20008;-62
2020/12/24 06:23:58;;;;;;;;;;;4.30;99.90;;;;;;5099897;28;20234;-62
2020/12/24 06:26:25;;;;;;;;;;;4.30;99.90;;;;;;5100353;28;19995;-62
2020/12/24 06:28:53;;;;;;;;;;;4.20;99.90;;;;;;5100209;28;20019;-62
2020/12/24 06:31:19;;;;;;;;;;;4.20;99.90;;;;;;5100120;28;19914;-62
2020/12/24 06:33:45;;;;;;;;;;;4.20;99.90;;;;;;5099989;28;20304;-63
2020/12/24 06:36:30;;;;;;;;;;;4.20;99.90;;;;;;5099672;28;19916;-62
2020/12/24 06:38:55;;;;;;;;;;;4.10;99.90;;;;;;5099713;28;20203;-62
2020/12/24 06:41:22;;;;;;;;;;;4.10;99.90;;;;;;5099297;28;20010;-63
2020/12/24 06:43:48;;;;;;;;;;;4.10;99.90;;;;;;5099534;28;19908;-62
2020/12/24 06:46:13;;;;;;;;;;;4.20;99.90;;;;;;5099431;28;19919;-62
2020/12/24 06:48:39;;;;;;;;;;;4.30;99.90;;;;;;5099853;28;19931;-62
2020/12/24 06:51:04;;;;;;;;;;;4.30;99.90;;;;;;5099812;28;19916;-62
2020/12/24 06:53:33;;;;;;;;;;;4.20;99.90;;;;;;5099266;28;19908;-62
2020/12/24 06:56:23;;;;;;;;;;;4.10;99.90;;;;;;5100152;28;19923;-63
2020/12/24 06:58:49;;;;;;;;;;;4.10;99.90;;;;;;5099706;28;19918;-62
2020/12/24 07:01:23;;;;;;;;;;;4.00;99.90;;;;;;5098219;28;19908;-62
2020/12/24 07:03:49;;;;;;;;;;;3.90;99.90;;;;;;5099124;28;19961;-62
2020/12/24 07:06:33;;;;;;;;;;;3.90;99.90;;;;;;5099831;28;20006;-63
2020/12/24 07:08:59;;;;;;;;;;;3.80;99.90;;;;;;5099234;28;19954;-62
2020/12/24 07:11:55;;;;;;;;;;;3.80;99.90;;;;;;5099669;28;19912;-63
2020/12/24 07:14:24;;;;;;;;;;;3.80;99.90;;;;;;5082029;28;19908;-62
2020/12/24 07:16:51;;;;;;;;;;;3.70;99.90;;;;;;5098698;28;20307;-63
2020/12/24 07:19:17;;;;;;;;;;;3.70;99.90;;;;;;5099179;28;19912;-62
2020/12/24 07:21:45;;;;;;;;;;;3.60;99.90;;;;;;5099128;28;20222;-63
2020/12/24 07:24:11;;;;;;;;;;;3.60;99.90;;;;;;5099229;28;19908;-62
2020/12/24 07:26:36;;;;;;;;;;;3.50;99.90;;;;;;5099075;28;19912;-63
2020/12/24 07:29:02;;;;;;;;;;;3.50;99.90;;;;;;5098431;28;19916;-63
2020/12/24 07:31:28;;;;;;;;;;;3.50;99.90;;;;;;5099066;28;20230;-63
2020/12/24 07:33:53;;;;;;;;;;;3.50;99.90;;;;;;5098722;28;19951;-62
2020/12/24 07:36:24;;;;;;;;;;;3.50;99.90;;;;;;5098882;28;19913;-62
2020/12/24 07:38:49;;;;;;;;;;;3.50;99.90;;;;;;5098749;28;20316;-62
2020/12/24 07:41:16;;;;;;;;;;;3.50;99.90;;;;;;5086114;28;19943;-63
2020/12/24 07:43:41;;;;;;;;;;;3.50;99.90;;;;;;5082398;28;19909;-62
2020/12/24 07:46:07;;;;;;;;;;;3.60;99.90;;;;;;5096161;28;20329;-62
2020/12/24 07:48:33;;;;;;;;;;;3.50;99.90;;;;;;5097767;28;20269;-63
2020/12/24 07:51:05;;;;;;;;;;;3.50;99.90;;;;;;5098679;28;19912;-62
2020/12/24 07:53:31;;;;;;;;;;;3.50;99.90;;;;;;5098859;28;19908;-62
2020/12/24 07:56:04;;;;;;;;;;;3.40;99.90;;;;;;5098782;28;20404;-62
2020/12/24 07:58:29;;;;;;;;;;;3.40;99.90;;;;;;5099264;28;19908;-63
2020/12/24 08:00:56;;;;;;;;;;;3.50;99.90;;;;;;5096933;28;19908;-62
2020/12/24 08:03:21;;;;;;;;;;;3.60;99.90;;;;;;5098645;28;19964;-62
2020/12/24 08:05:47;;;;;;;;;;;3.60;99.90;;;;;;5096906;28;19970;-62
2020/12/24 08:08:13;;;;;;;;;;;3.50;99.90;;;;;;5097138;28;19988;-63
2020/12/24 08:10:43;;;;;;;;;;;3.50;99.90;;;;;;5098220;28;19918;-62
2020/12/24 08:13:09;;;;;;;;;;;3.40;99.90;;;;;;5098739;28;19954;-62
2020/12/24 08:15:39;;;;;;;;;;;3.30;99.90;;;;;;5098279;28;19908;-63
2020/12/24 08:18:05;;;;;;;;;;;3.30;99.90;;;;;;5099825;28;20291;-63
2020/12/24 08:20:49;;;;;;;;;;;3.20;99.90;;;;;;5099174;28;19912;-63
2020/12/24 08:23:38;;;;;;;;;;;3.20;99.90;;;;;;5098577;28;19959;-63
2020/12/24 08:26:05;;;;;;;;;;;3.30;99.90;;;;;;5089915;28;19961;-63
2020/12/24 08:28:31;;;;;;;;;;;3.40;99.90;;;;;;5098623;28;19908;-63
2020/12/24 08:30:56;;;;;;;;;;;3.40;99.90;;;;;;5098111;28;20214;-63
2020/12/24 08:33:23;;;;;;;;;;;3.30;99.90;;;;;;5098252;28;19912;-63
2020/12/24 08:35:49;;;;;;;;;;;3.40;99.90;;;;;;5097868;28;19951;-63
2020/12/24 08:38:18;;;;;;;;;;;3.40;99.90;;;;;;5096887;28;19912;-63
2020/12/24 08:40:44;;;;;;;;;;;3.40;99.90;;;;;;5097122;28;19912;-63
2020/12/24 08:43:10;;;;;;;;;;;3.40;99.90;;;;;;5098343;28;20339;-63
2020/12/24 08:45:46;;;;;;;;;;;3.40;99.90;;;;;;5097878;28;19919;-63
2020/12/24 08:48:46;;;;;;;;;;;3.50;99.90;;;;;;5098207;28;19912;-63
2020/12/24 08:51:13;;;;;;;;;;;3.60;99.90;;;;;;5015484;28;19917;-63
2020/12/24 08:53:39;;;;;;;;;;;3.60;99.90;;;;;;5081541;28;20002;-63
2020/12/24 08:56:14;;;;;;;;;;;3.60;99.90;;;;;;5097751;28;20024;-63
2020/12/24 08:58:49;;;;;;;;;;;3.70;99.90;;;;;;5098052;28;20266;-62
2020/12/24 09:01:15;;;;;;;;;;;3.90;99.90;;;;;;5102438;28;20205;-62
2020/12/24 09:03:43;;;;;;;;;;;4.10;99.90;;;;;;5117976;28;19920;-62
2020/12/24 09:06:15;;;;;;;;;;;4.20;99.90;;;;;;5117526;28;19919;-62
2020/12/24 09:08:47;;;;;;;;;;;4.20;99.90;;;;;;5092369;28;19908;-62
2020/12/24 09:11:27;;;;;;;;;;;4.20;99.90;;;;;;5100793;28;20374;-62
2020/12/24 09:13:56;;;;;;;;;;;4.40;99.90;;;;;;5106025;28;19915;-62
2020/12/24 09:16:22;;;;;;;;;;;4.60;99.90;;;;;;5102885;28;19943;-62
2020/12/24 09:18:47;;;;;;;;;;;4.80;99.90;;;;;;5102866;28;19996;-61
2020/12/24 09:21:13;;;;;;;;;;;4.90;99.90;;;;;;5100871;28;19916;-61
2020/12/24 09:23:38;;;;;;;;;;;4.90;99.90;;;;;;5103336;28;19927;-62
2020/12/24 09:26:04;;;;;;;;;;;5.10;99.90;;;;;;5104243;28;19920;-62
2020/12/24 09:28:30;;;;;;;;;;;5.30;99.90;;;;;;5095929;28;19924;-62
2020/12/24 09:30:59;;;;;;;;;;;5.40;99.90;;;;;;5106273;28;19908;-62
2020/12/24 09:33:25;;;;;;;;;;;5.30;99.90;;;;;;5105139;28;19922;-62
2020/12/24 09:35:51;;;;;;;;;;;5.30;99.90;;;;;;5100404;28;19916;-62
2020/12/24 09:38:16;;;;;;;;;;;5.40;99.90;;;;;;5101072;28;19920;-62
2020/12/24 09:40:42;;;;;;;;;;;5.40;99.90;;;;;;5103475;28;19918;-61
2020/12/24 09:43:08;;;;;;;;;;;5.40;99.90;;;;;;5096227;28;20027;-61
2020/12/24 09:45:35;;;;;;;;;;;5.30;99.90;;;;;;5103003;28;19912;-62
2020/12/24 09:48:00;;;;;;;;;;;5.40;99.90;;;;;;5101318;28;19912;-61
2020/12/24 09:50:26;;;;;;;;;;;5.50;99.90;;;;;;5101280;28;19933;-63
2020/12/24 09:52:52;;;;;;;;;;;5.50;99.90;;;;;;5105874;28;20250;-62
2020/12/24 09:55:17;;;;;;;;;;;5.60;99.90;;;;;;5105023;28;19966;-62
2020/12/24 09:57:43;;;;;;;;;;;5.60;99.90;;;;;;5101798;28;19938;-62
2020/12/24 10:00:09;;;;;;;;;;;5.60;99.90;;;;;;5104361;28;19934;-62
2020/12/24 10:02:35;;;;;;;;;;;5.60;99.90;;;;;;5108397;28;20283;-61
2020/12/24 10:05:01;;;;;;;;;;;5.70;99.90;;;;;;5105606;28;19955;-62
2020/12/24 10:07:26;;;;;;;;;;;5.60;99.90;;;;;;5085124;28;20472;-62
2020/12/24 10:09:52;;;;;;;;;;;5.80;99.90;;;;;;5105741;28;20027;-62
2020/12/24 10:12:21;;;;;;;;;;;5.80;99.90;;;;;;5104990;28;20339;-62
2020/12/24 10:14:47;;;;;;;;;;;5.80;99.90;;;;;;5105461;28;19931;-62
2020/12/24 10:17:13;;;;;;;;;;;5.90;99.90;;;;;;5107140;28;19912;-62
2020/12/24 10:19:39;;;;;;;;;;;5.90;99.90;;;;;;5105094;28;19912;-62
2020/12/24 10:22:04;;;;;;;;;;;6.00;99.90;;;;;;5108545;28;20023;-62
2020/12/24 10:24:30;;;;;;;;;;;5.90;99.90;;;;;;5101564;28;20346;-62
2020/12/24 10:26:55;;;;;;;;;;;6.00;99.90;;;;;;5109967;28;19923;-62
2020/12/24 10:29:22;;;;;;;;;;;6.00;99.90;;;;;;5103718;28;19920;-61
2020/12/24 10:31:47;;;;;;;;;;;5.90;99.90;;;;;;5104231;28;19919;-61
2020/12/24 10:34:13;;;;;;;;;;;5.80;99.90;;;;;;5104560;28;19912;-62
2020/12/24 10:36:39;;;;;;;;;;;5.80;99.90;;;;;;5100625;28;20353;-62
2020/12/24 10:39:09;;;;;;;;;;;6.00;99.90;;;;;;5106116;28;19916;-62
2020/12/24 10:41:34;;;;;;;;;;;6.00;99.90;;;;;;5105956;28;20007;-63
2020/12/24 10:44:00;;;;;;;;;;;6.30;99.90;;;;;;5102191;28;20002;-60
2020/12/24 10:46:25;;;;;;;;;;;6.80;99.90;;;;;;5104764;28;19912;-61
2020/12/24 10:48:51;;;;;;;;;;;7.20;99.90;;;;;;5104318;28;20235;-62
2020/12/24 10:51:17;;;;;;;;;;;7.40;99.90;;;;;;5087337;28;20059;-62
2020/12/24 10:53:42;;;;;;;;;;;7.60;99.90;;;;;;5107322;28;19912;-61
2020/12/24 10:56:12;;;;;;;;;;;7.90;99.90;;;;;;5100176;28;19927;-61
2020/12/24 10:58:37;;;;;;;;;;;7.90;99.90;;;;;;5102351;28;19912;-61
2020/12/24 11:01:03;;;;;;;;;;;7.80;99.90;;;;;;5101571;28;20277;-62
2020/12/24 11:03:29;;;;;;;;;;;7.80;99.90;;;;;;5105146;28;20046;-61
2020/12/24 11:05:55;;;;;;;;;;;8.00;99.90;;;;;;5107288;28;19912;-61
2020/12/24 11:08:20;;;;;;;;;;;8.10;99.90;;;;;;5101373;28;20320;-61
2020/12/24 11:10:46;;;;;;;;;;;8.10;99.90;;;;;;5106646;28;19916;-61
2020/12/24 11:13:11;;;;;;;;;;;8.10;99.90;;;;;;5105466;28;19930;-60
2020/12/24 11:15:38;;;;;;;;;;;8.00;99.90;;;;;;5104402;28;19920;-61
2020/12/24 11:18:04;;;;;;;;;;;7.50;99.90;;;;;;5103427;28;20225;-62
2020/12/24 11:20:29;;;;;;;;;;;7.60;99.90;;;;;;5108291;28;20034;-61
2020/12/24 11:22:55;;;;;;;;;;;7.70;99.90;;;;;;5105024;28;19921;-62
2020/12/24 11:25:20;;;;;;;;;;;7.70;99.90;;;;;;5100131;28;20249;-62
2020/12/24 11:27:46;;;;;;;;;;;7.90;99.90;;;;;;5105792;28;19927;-62
2020/12/24 11:30:12;;;;;;;;;;;8.00;99.90;;;;;;5099571;28;20101;-62
2020/12/24 11:32:37;;;;;;;;;;;8.20;99.90;;;;;;5103794;28;19919;-64
2020/12/24 11:35:03;;;;;;;;;;;8.30;99.90;;;;;;5104422;28;19920;-62
2020/12/24 11:37:28;;;;;;;;;;;8.40;99.90;;;;;;5108537;28;19923;-62
2020/12/24 11:39:54;;;;;;;;;;;8.30;99.90;;;;;;5103420;28;20466;-62
2020/12/24 11:42:19;;;;;;;;;;;8.10;99.90;;;;;;5105241;28;19920;-62
2020/12/24 11:44:45;;;;;;;;;;;7.50;99.90;;;;;;5104981;28;19915;-62
2020/12/24 11:47:10;;;;;;;;;;;7.20;99.90;;;;;;5106746;28;19920;-62
2020/12/24 11:49:36;;;;;;;;;;;7.20;99.90;;;;;;5103146;28;20299;-62
2020/12/24 11:52:05;;;;;;;;;;;7.20;99.90;;;;;;5101979;28;19924;-63
2020/12/24 11:54:31;;;;;;;;;;;7.10;99.90;;;;;;5099646;28;19923;-62
2020/12/24 11:56:56;;;;;;;;;;;7.10;99.90;;;;;;5085704;28;20272;-62
2020/12/24 11:59:22;;;;;;;;;;;6.90;99.90;;;;;;5101260;28;19924;-62
2020/12/24 12:01:50;;;;;;;;;;;6.80;99.90;;;;;;5098907;28;19967;-61
2020/12/24 12:04:16;;;;;;;;;;;6.60;99.90;;;;;;5099240;28;19915;-61
2020/12/24 12:06:41;;;;;;;;;;;6.60;99.90;;;;;;5101756;28;20245;-62
2020/12/24 12:09:07;;;;;;;;;;;6.70;99.90;;;;;;5101184;28;19916;-61
2020/12/24 12:11:33;;;;;;;;;;;6.60;99.90;;;;;;5104494;28;19959;-61
2020/12/24 12:14:00;;;;;;;;;;;6.70;99.90;;;;;;5102208;28;20299;-62
2020/12/24 12:16:27;;;;;;;;;;;6.70;99.90;;;;;;5105541;28;19944;-62
2020/12/24 12:18:56;;;;;;;;;;;6.80;99.90;;;;;;5100089;28;19918;-63
2020/12/24 12:21:22;;;;;;;;;;;6.80;99.90;;;;;;5106326;28;19924;-62
2020/12/24 12:23:47;;;;;;;;;;;6.80;99.90;;;;;;5100245;28;19962;-63
2020/12/24 12:26:15;;;;;;;;;;;6.70;99.90;;;;;;5101877;28;20237;-63
2020/12/24 12:28:44;;;;;;;;;;;6.60;99.90;;;;;;5101262;28;19916;-62
2020/12/24 12:31:20;;;;;;;;;;;6.70;99.90;;;;;;5106072;28;19912;-62
2020/12/24 12:33:47;;;;;;;;;;;6.60;99.90;;;;;;5101324;28;19915;-62
2020/12/24 12:36:12;;;;;;;;;;;6.60;99.90;;;;;;5101036;28;20310;-62
2020/12/24 12:38:38;;;;;;;;;;;6.60;99.90;;;;;;5103850;28;19990;-63
2020/12/24 12:41:03;;;;;;;;;;;6.60;99.90;;;;;;5099703;28;19911;-62
2020/12/24 12:43:29;;;;;;;;;;;6.80;99.90;;;;;;5103768;28;19964;-62
2020/12/24 12:45:55;;;;;;;;;;;6.90;99.90;;;;;;5098521;28;19944;-62
2020/12/24 12:48:20;;;;;;;;;;;7.00;99.90;;;;;;5101400;28;20366;-62
2020/12/24 12:50:46;;;;;;;;;;;7.00;99.90;;;;;;5100882;28;19916;-62
2020/12/24 12:53:11;;;;;;;;;;;6.80;99.90;;;;;;5089364;28;20023;-62
2020/12/24 12:55:37;;;;;;;;;;;6.70;99.90;;;;;;5097553;28;19916;-61
2020/12/24 12:58:03;;;;;;;;;;;6.60;99.90;;;;;;5101162;28;20306;-61
2020/12/24 13:00:28;;;;;;;;;;;6.70;99.90;;;;;;5103587;28;19927;-62
2020/12/24 13:02:54;;;;;;;;;;;6.70;99.90;;;;;;5103538;28;20635;-62
2020/12/24 13:05:19;;;;;;;;;;;6.90;99.90;;;;;;5102295;28;19916;-62
2020/12/24 13:07:45;;;;;;;;;;;6.80;99.90;;;;;;5098257;28;19943;-63
2020/12/24 13:10:10;;;;;;;;;;;6.90;99.90;;;;;;5102623;28;20254;-63
2020/12/24 13:12:36;;;;;;;;;;;6.90;99.90;;;;;;5104387;28;20323;-63
2020/12/24 13:15:01;;;;;;;;;;;6.80;99.90;;;;;;5099295;28;19924;-62
2020/12/24 13:17:27;;;;;;;;;;;6.90;99.90;;;;;;5102000;28;20006;-62
2020/12/24 13:19:53;;;;;;;;;;;6.90;99.90;;;;;;5104995;28;19912;-62
2020/12/24 13:22:18;;;;;;;;;;;7.10;99.90;;;;;;5100680;28;19931;-62
2020/12/24 13:24:45;;;;;;;;;;;7.10;99.90;;;;;;5102760;28;19999;-63
2020/12/24 13:27:10;;;;;;;;;;;7.00;99.90;;;;;;5103147;28;20345;-63
2020/12/24 13:29:36;;;;;;;;;;;7.00;99.90;;;;;;5100255;28;19917;-63
2020/12/24 13:32:02;;;;;;;;;;;6.70;99.90;;;;;;5096426;28;19935;-62
2020/12/24 13:34:27;;;;;;;;;;;6.40;99.90;;;;;;5103485;28;20310;-62
2020/12/24 13:36:53;;;;;;;;;;;6.30;99.90;;;;;;5103341;28;19934;-62
2020/12/24 13:39:18;;;;;;;;;;;6.10;99.90;;;;;;5104945;28;19924;-62
2020/12/24 13:41:48;;;;;;;;;;;6.00;99.90;;;;;;5103965;28;20366;-62
2020/12/24 13:44:13;;;;;;;;;;;6.00;99.90;;;;;;5103958;28;19963;-62
2020/12/24 13:46:39;;;;;;;;;;;6.00;99.90;;;;;;5102775;28;19943;-63
2020/12/24 13:49:04;;;;;;;;;;;6.10;99.90;;;;;;5101960;28;20281;-62
2020/12/24 13:51:30;;;;;;;;;;;6.10;99.90;;;;;;5101494;28;19907;-63
2020/12/24 13:53:56;;;;;;;;;;;6.20;99.90;;;;;;5104094;28;20375;-62
2020/12/24 13:56:22;;;;;;;;;;;6.10;99.90;;;;;;5102693;28;19930;-62
2020/12/24 13:58:48;;;;;;;;;;;6.10;99.90;;;;;;5099433;28;19908;-63
2020/12/24 14:01:14;;;;;;;;;;;6.10;99.90;;;;;;5103041;28;19927;-63
2020/12/24 14:03:40;;;;;;;;;;;6.10;99.90;;;;;;5101905;28;20314;-63
2020/12/24 14:06:07;;;;;;;;;;;6.10;99.90;;;;;;5099852;28;19927;-63
2020/12/24 14:08:33;;;;;;;;;;;6.10;99.90;;;;;;5102441;28;20003;-62
2020/12/24 14:10:58;;;;;;;;;;;6.10;99.90;;;;;;5100366;28;20007;-63
2020/12/24 14:13:24;;;;;;;;;;;6.10;99.90;;;;;;5104096;28;19964;-62
2020/12/24 14:15:49;;;;;;;;;;;6.10;99.90;;;;;;5101296;28;20322;-62
2020/12/24 14:18:15;;;;;;;;;;;6.20;99.90;;;;;;5102865;28;19926;-63
2020/12/24 14:20:40;;;;;;;;;;;6.20;99.90;;;;;;5098409;28;19916;-63
2020/12/24 14:23:09;;;;;;;;;;;6.20;99.90;;;;;;5099305;28;19924;-62
2020/12/24 14:25:41;;;;;;;;;;;6.10;99.90;;;;;;5098097;28;19918;-62
2020/12/24 14:28:07;;;;;;;;;;;6.00;99.90;;;;;;5098632;28;20218;-61